Time;durP1;ratioP1;P1;durP2;ratioP2;P2;SDS_P1;SDS_P2;PMS_P1;PMS_P2;Temp;Humidity;BMP_temperature;BMP_pressure;BME280_temperature;BME280_humidity;BME280_pressure;Samples;Min_cycle;Max_cycle;Signal;HPM_P1;HPM_P2
2023/03/26 00:02:12;;;;;;;6.60;1.57;;;;;;;8.54;81.16;98228.78;4967311;28;20373;-57
2023/03/26 00:04:41;;;;;;;9.90;1.77;;;;;;;8.50;79.33;98216.22;4967796;28;20248;-55
2023/03/26 00:07:09;;;;;;;6.47;1.77;;;;;;;8.40;80.19;98230.09;4965885;28;20238;-58
2023/03/26 00:09:37;;;;;;;8.67;2.00;;;;;;;8.38;80.92;98219.03;4961929;28;20619;-57
2023/03/26 00:12:04;;;;;;;9.30;1.10;;;;;;;8.48;80.29;98215.53;4963892;28;20235;-57
2023/03/26 00:14:31;;;;;;;7.20;1.50;;;;;;;8.40;79.93;98217.09;4970381;28;20242;-57
2023/03/26 00:16:58;;;;;;;9.20;1.20;;;;;;;8.51;78.95;98225.66;4965136;28;20247;-57
2023/03/26 00:19:25;;;;;;;3.80;1.00;;;;;;;8.42;79.20;98219.53;4968741;28;20242;-58
2023/03/26 00:21:52;;;;;;;7.43;1.70;;;;;;;8.42;79.89;98215.16;4964569;28;20346;-57
2023/03/26 00:24:18;;;;;;;6.90;1.17;;;;;;;8.45;79.22;98211.44;4969083;28;20243;-60
2023/03/26 00:26:51;;;;;;;5.97;1.47;;;;;;;8.58;77.90;98205.88;4969221;28;20239;-57
2023/03/26 00:29:18;;;;;;;12.13;2.33;;;;;;;8.59;77.29;98211.91;4963742;28;20218;-56
2023/03/26 00:31:45;;;;;;;6.73;1.30;;;;;;;8.56;77.18;98205.22;4964591;28;20598;-55
2023/03/26 00:34:14;;;;;;;10.87;1.60;;;;;;;8.51;77.92;98210.03;4965127;28;20824;-59
2023/03/26 00:36:42;;;;;;;6.17;1.37;;;;;;;8.57;77.89;98217.25;4956769;28;20579;-59
2023/03/26 00:39:09;;;;;;;8.77;1.70;;;;;;;8.60;77.68;98210.94;4963953;28;20231;-59
2023/03/26 00:41:41;;;;;;;8.53;1.27;;;;;;;8.63;76.86;98206.25;4964080;28;20236;-59
2023/03/26 00:44:09;;;;;;;10.03;1.20;;;;;;;8.67;76.13;98199.00;4963763;28;20236;-58
2023/03/26 00:46:36;;;;;;;9.40;1.37;;;;;;;8.75;75.96;98195.63;4958257;28;20232;-61
2023/03/26 00:49:03;;;;;;;7.67;1.27;;;;;;;8.79;74.29;98186.56;4964290;28;20240;-59
2023/03/26 00:51:32;;;;;;;7.97;1.53;;;;;;;8.78;76.29;98196.16;4968313;28;20239;-60
2023/03/26 00:53:58;;;;;;;8.73;1.53;;;;;;;8.74;78.29;98192.22;4966554;28;20349;-63
2023/03/26 00:56:25;;;;;;;13.17;1.63;;;;;;;8.75;77.83;98191.25;4950384;28;20227;-60
2023/03/26 00:58:52;;;;;;;9.90;1.73;;;;;;;8.77;77.41;98188.50;4964173;28;22465;-60
2023/03/26 01:01:26;;;;;;;10.37;1.30;;;;;;;8.83;76.94;98190.50;4967145;28;20242;-59
2023/03/26 01:03:57;;;;;;;11.30;1.73;;;;;;;8.86;77.51;98178.00;4960642;28;20253;-60
2023/03/26 01:06:26;;;;;;;13.00;1.50;;;;;;;8.86;77.00;98175.41;4960592;28;20232;-62
2023/03/26 01:08:58;;;;;;;6.17;1.20;;;;;;;8.84;78.50;98160.91;4960240;28;20321;-60
2023/03/26 01:11:29;;;;;;;10.83;2.20;;;;;;;8.83;78.18;98161.88;4968701;28;20227;-64
2023/03/26 01:13:59;;;;;;;11.83;1.40;;;;;;;8.87;76.95;98155.38;4963757;28;20327;-60
2023/03/26 01:16:31;;;;;;;7.10;1.60;;;;;;;8.79;76.43;98156.16;4968931;28;20227;-60
2023/03/26 01:18:59;;;;;;;11.37;1.70;;;;;;;8.75;78.26;98140.97;4963216;28;20776;-60
2023/03/26 01:21:30;;;;;;;9.93;1.93;;;;;;;8.77;77.39;98139.88;4958402;28;20225;-65
2023/03/26 01:24:00;;;;;;;12.43;1.53;;;;;;;8.79;76.96;98134.50;4962268;28;20255;-60
2023/03/26 01:26:59;;;;;;;8.30;1.53;;;;;;;8.85;76.30;98137.34;4959605;28;20249;-60
2023/03/26 01:29:39;;;;;;;7.57;1.50;;;;;;;8.82;76.96;98127.22;4946944;28;20715;-60
2023/03/26 01:32:18;;;;;;;11.23;2.07;;;;;;;8.95;75.52;98115.59;4963435;28;20284;-61
2023/03/26 01:35:00;;;;;;;7.33;1.20;;;;;;;8.94;76.02;98112.16;4964214;28;20251;-59
2023/03/26 01:37:36;;;;;;;10.20;1.60;;;;;;;8.91;76.54;98103.84;4959213;28;20233;-60
2023/03/26 01:40:09;;;;;;;10.43;1.60;;;;;;;8.92;76.94;98102.91;4961885;28;20242;-60
2023/03/26 01:42:41;;;;;;;11.67;1.20;;;;;;;8.94;76.52;98080.94;4931928;28;20294;-60
2023/03/26 01:45:13;;;;;;;8.27;1.53;;;;;;;8.92;75.99;98084.66;4965898;28;21362;-60
2023/03/26 01:47:41;;;;;;;11.80;1.63;;;;;;;8.92;76.39;98082.88;4968823;28;20333;-60
2023/03/26 01:50:08;;;;;;;7.90;1.23;;;;;;;8.91;76.93;98075.22;4955605;28;20715;-60
2023/03/26 01:52:35;;;;;;;7.80;2.60;;;;;;;8.89;77.03;98079.78;4960130;28;20249;-60
2023/03/26 01:55:02;;;;;;;11.67;1.67;;;;;;;8.83;78.30;98074.22;4967826;28;20294;-60
2023/03/26 01:57:36;;;;;;;11.17;1.60;;;;;;;8.90;76.98;98068.38;4970438;28;20232;-61
2023/03/26 02:00:13;;;;;;;9.23;1.30;;;;;;;8.89;76.88;98051.94;4956335;28;20270;-61
2023/03/26 02:02:57;;;;;;;9.17;1.70;;;;;;;8.87;77.73;98053.88;4969343;28;20288;-61
2023/03/26 02:05:28;;;;;;;6.70;1.10;;;;;;;8.81;78.37;98047.53;4967338;28;20286;-61
2023/03/26 02:08:02;;;;;;;8.13;1.40;;;;;;;8.75;79.00;98045.53;4953648;28;20730;-61
2023/03/26 02:10:33;;;;;;;7.17;1.70;;;;;;;8.71;79.45;98033.78;4970941;28;20221;-61
2023/03/26 02:13:01;;;;;;;8.97;1.70;;;;;;;8.68;79.44;98032.31;4956469;28;20237;-61
2023/03/26 02:15:28;;;;;;;16.90;1.90;;;;;;;8.67;80.66;98015.06;4972017;28;20238;-61
2023/03/26 02:17:55;;;;;;;9.93;1.70;;;;;;;8.73;78.52;98015.41;4968896;28;20238;-61
2023/03/26 02:20:21;;;;;;;10.47;1.60;;;;;;;8.69;78.25;98012.31;4969744;28;20305;-61
2023/03/26 02:22:48;;;;;;;8.20;2.17;;;;;;;8.68;79.02;98005.47;4964570;28;20259;-61
2023/03/26 02:25:20;;;;;;;10.10;1.63;;;;;;;8.74;78.17;98002.25;4961318;28;20658;-61
2023/03/26 02:27:50;;;;;;;10.00;1.50;;;;;;;8.76;78.70;98007.31;4952886;28;20257;-59
2023/03/26 02:30:24;;;;;;;12.80;2.00;;;;;;;8.73;77.94;98000.63;4969359;28;20231;-60
2023/03/26 02:32:53;;;;;;;11.80;2.17;;;;;;;8.76;78.82;97995.13;4945039;28;21124;-60
2023/03/26 02:35:22;;;;;;;6.87;1.70;;;;;;;8.75;78.51;97988.28;4938699;28;20706;-60
2023/03/26 02:37:53;;;;;;;10.67;1.70;;;;;;;8.74;78.48;97972.81;4962270;28;20238;-61
2023/03/26 02:40:21;;;;;;;14.47;1.83;;;;;;;8.73;78.49;97976.38;4959989;28;20220;-60
2023/03/26 02:42:49;;;;;;;10.67;2.07;;;;;;;8.73;77.81;97961.59;4962682;28;20594;-61
2023/03/26 02:45:17;;;;;;;5.43;1.30;;;;;;;8.74;77.53;97965.84;4951789;28;20714;-60
2023/03/26 02:48:06;;;;;;;8.80;1.97;;;;;;;8.71;77.98;97961.75;4938071;28;20757;-61
2023/03/26 02:50:53;;;;;;;7.83;1.67;;;;;;;8.70;78.81;97954.09;4966618;28;20321;-62
2023/03/26 02:53:52;;;;;;;7.40;1.10;;;;;;;8.64;79.94;97934.72;4917386;28;20325;-61
2023/03/26 02:56:49;;;;;;;7.97;1.13;;;;;;;8.63;79.21;97927.88;4963070;28;20728;-60
2023/03/26 02:59:45;;;;;;;10.93;1.80;;;;;;;8.65;79.00;97927.75;4956367;28;20230;-60
2023/03/26 03:02:30;;;;;;;10.13;1.83;;;;;;;8.65;79.03;97936.34;4932117;28;20282;-61
2023/03/26 03:05:09;;;;;;;12.07;1.90;;;;;;;8.61;80.16;97937.63;4966926;28;20345;-60
2023/03/26 03:07:37;;;;;;;6.97;1.23;;;;;;;8.62;80.05;97931.44;4957914;28;20710;-60
2023/03/26 03:10:07;;;;;;;9.90;1.63;;;;;;;8.57;80.17;97931.09;4965790;28;20360;-61
2023/03/26 03:13:04;;;;;;;7.70;1.40;;;;;;;8.70;75.76;97918.47;4951464;28;20271;-60
2023/03/26 03:15:31;;;;;;;8.90;1.30;;;;;;;8.71;76.05;97917.50;4962244;28;20232;-61
2023/03/26 03:17:57;;;;;;;10.47;2.10;;;;;;;8.75;76.45;97914.59;4944426;28;20228;-61
2023/03/26 03:20:30;;;;;;;7.27;1.50;;;;;;;8.76;76.03;97908.41;4954568;28;20261;-61
2023/03/26 03:22:56;;;;;;;8.77;1.80;;;;;;;8.71;76.88;97901.91;4957837;28;20770;-62
2023/03/26 03:25:24;;;;;;;5.43;1.40;;;;;;;8.68;77.52;97904.00;4959165;28;20235;-60
2023/03/26 03:27:52;;;;;;;9.80;2.13;;;;;;;8.65;78.41;97902.53;4961512;28;20721;-60
2023/03/26 03:33:02;;;;;;;7.27;1.67;;;;;;;8.62;74.73;97897.63;4989100;23;20244;-60
2023/03/26 03:35:30;;;;;;;7.50;1.50;;;;;;;8.66;74.24;97885.94;4932076;28;20687;-59
2023/03/26 03:38:02;;;;;;;8.87;1.40;;;;;;;8.68;72.95;97880.59;4924294;28;20258;-59
2023/03/26 03:40:41;;;;;;;6.37;1.20;;;;;;;8.65;75.93;97873.91;4914862;28;20248;-60
2023/03/26 03:43:08;;;;;;;7.83;1.50;;;;;;;8.61;75.75;97864.78;4911896;28;20228;-60
2023/03/26 03:45:46;;;;;;;7.53;1.10;;;;;;;8.55;77.65;97861.03;4958082;28;20323;-59
2023/03/26 03:48:29;;;;;;;7.37;1.20;;;;;;;8.56;74.25;97872.25;4896822;28;20619;-59
2023/03/26 03:51:01;;;;;;;8.37;1.30;;;;;;;8.48;78.93;97875.59;4918832;28;20221;-61
2023/03/26 03:53:39;;;;;;;4.23;1.30;;;;;;;8.41;79.59;97872.81;4954334;28;20685;-60
2023/03/26 03:56:08;;;;;;;16.90;2.03;;;;;;;8.40;76.78;97875.56;4952934;28;20240;-58
2023/03/26 03:59:09;;;;;;;10.40;1.53;;;;;;;8.48;75.98;97869.59;4966124;28;21886;-56
2023/03/26 04:01:37;;;;;;;11.43;1.50;;;;;;;8.47;75.53;97863.56;4952703;28;20670;-57
2023/03/26 04:04:10;;;;;;;9.83;1.47;;;;;;;8.48;74.63;97851.41;4965007;28;21063;-58
2023/03/26 04:07:05;;;;;;;9.43;1.70;;;;;;;8.51;75.92;97848.47;4962941;28;20706;-58
2023/03/26 04:09:51;;;;;;;6.63;1.23;;;;;;;8.53;74.12;97842.16;4928848;28;20660;-58
2023/03/26 04:12:21;;;;;;;12.43;1.57;;;;;;;8.59;74.26;97845.91;4949874;28;20600;-56
2023/03/26 04:14:59;;;;;;;6.03;1.23;;;;;;;8.65;74.92;97834.88;4946659;28;20233;-58
2023/03/26 04:17:26;;;;;;;9.07;1.40;;;;;;;8.70;74.12;97829.22;4967277;28;20244;-58
2023/03/26 04:19:55;;;;;;;7.77;1.33;;;;;;;8.70;73.83;97803.19;4961748;28;20239;-58
2023/03/26 04:22:33;;;;;;;7.70;1.43;;;;;;;8.70;73.78;97785.78;4959640;28;20222;-58
2023/03/26 04:25:01;;;;;;;6.10;1.20;;;;;;;8.76;73.71;97786.13;4953156;28;20235;-59
2023/03/26 04:27:47;;;;;;;10.17;1.40;;;;;;;8.77;71.54;97769.53;4967255;28;20306;-59
2023/03/26 04:30:27;;;;;;;5.67;1.13;;;;;;;8.78;71.74;97771.16;4965330;28;20223;-59
2023/03/26 04:33:03;;;;;;;7.33;1.60;;;;;;;8.76;70.95;97771.34;4948856;28;20240;-59
2023/03/26 04:35:34;;;;;;;7.33;1.43;;;;;;;8.71;74.29;97776.22;4951592;28;20638;-59
2023/03/26 04:38:05;;;;;;;14.83;2.83;;;;;;;8.63;73.96;97786.59;4961789;28;20689;-60
2023/03/26 04:40:41;;;;;;;4.87;1.07;;;;;;;8.61;73.96;97788.53;4955370;28;20233;-59
2023/03/26 04:43:34;;;;;;;7.03;1.43;;;;;;;8.63;70.48;97795.19;4963953;28;20247;-60
2023/03/26 04:46:22;;;;;;;2.80;1.17;;;;;;;8.78;65.30;97797.19;4961784;28;20692;-59
2023/03/26 04:49:02;;;;;;;4.20;1.10;;;;;;;8.86;62.46;97776.38;4953453;28;20238;-60
2023/03/26 04:51:38;;;;;;;4.10;0.87;;;;;;;9.06;60.04;97766.47;4947633;28;20245;-59
2023/03/26 04:54:13;;;;;;;2.43;0.70;;;;;;;9.17;56.97;97749.72;4945393;28;20608;-58
2023/03/26 04:56:52;;;;;;;2.53;0.70;;;;;;;9.20;59.43;97735.53;4950909;28;20248;-58
2023/03/26 04:59:42;;;;;;;5.07;1.00;;;;;;;9.04;61.78;97724.16;4953457;28;20786;-60
2023/03/26 05:02:12;;;;;;;1.77;0.60;;;;;;;8.93;63.25;97716.72;4944992;28;20248;-59
2023/03/26 05:04:48;;;;;;;3.60;0.80;;;;;;;8.78;66.07;97719.94;4949261;28;20577;-60
2023/03/26 05:07:18;;;;;;;5.03;0.80;;;;;;;8.73;63.62;97711.81;4968141;28;20238;-60
2023/03/26 05:09:50;;;;;;;4.03;0.70;;;;;;;8.65;69.61;97706.59;4965936;28;20731;-60
2023/03/26 05:12:22;;;;;;;3.77;1.00;;;;;;;8.53;70.08;97709.50;4954296;28;20312;-60
2023/03/26 05:14:58;;;;;;;4.40;0.93;;;;;;;8.47;70.71;97701.53;4951646;28;20244;-59
2023/03/26 05:17:57;;;;;;;2.73;1.10;;;;;;;8.38;71.30;97695.47;4947759;28;20309;-60
2023/03/26 05:20:45;;;;;;;5.27;1.00;;;;;;;8.31;72.18;97687.50;4955240;28;20291;-58
2023/03/26 05:23:12;;;;;;;2.90;1.17;;;;;;;8.27;73.11;97681.81;4951378;28;20239;-60
2023/03/26 05:25:43;;;;;;;76.60;45.90;;;;;;;8.30;72.91;97679.84;4972606;28;20241;-60
2023/03/26 05:28:18;;;;;;;37.77;21.77;;;;;;;8.29;72.87;97668.66;4952130;28;20226;-60
2023/03/26 05:30:54;;;;;;;33.77;16.67;;;;;;;8.30;73.14;97666.84;4949002;28;20238;-59
2023/03/26 05:33:23;;;;;;;9.90;2.97;;;;;;;8.34;71.41;97662.97;4945422;28;20228;-60
2023/03/26 05:36:00;;;;;;;7.60;1.90;;;;;;;8.42;71.55;97662.97;4950466;28;20243;-59
2023/03/26 05:38:28;;;;;;;7.27;1.40;;;;;;;8.48;71.49;97659.72;4955815;28;20644;-59
2023/03/26 05:41:01;;;;;;;5.97;1.43;;;;;;;8.57;72.33;97656.19;4958732;28;20237;-59
2023/03/26 05:43:29;;;;;;;6.37;1.17;;;;;;;8.61;74.18;97653.28;4947386;28;20226;-59
2023/03/26 05:46:22;;;;;;;4.17;0.97;;;;;;;8.74;71.67;97630.19;4963460;28;20238;-59
2023/03/26 05:48:50;;;;;;;8.37;1.40;;;;;;;8.73;71.15;97617.31;4948692;28;20234;-59
2023/03/26 05:51:18;;;;;;;4.47;1.17;;;;;;;8.76;73.50;97619.59;4952699;28;20613;-59
2023/03/26 05:53:55;;;;;;;5.90;1.23;;;;;;;8.68;75.75;97605.63;4953157;28;20804;-60
2023/03/26 05:56:42;;;;;;;7.63;1.20;;;;;;;8.59;79.18;97617.00;4968546;28;20247;-60
2023/03/26 05:59:27;;;;;;;8.53;1.97;;;;;;;8.53;79.25;97613.28;4966797;28;20241;-59
2023/03/26 06:02:12;;;;;;;7.33;1.73;;;;;;;8.46;80.89;97627.88;4966158;28;20245;-59
2023/03/26 06:04:41;;;;;;;9.70;1.73;;;;;;;8.42;82.17;97624.78;4968050;28;20288;-59
2023/03/26 06:07:32;;;;;;;10.23;1.93;;;;;;;8.39;85.58;97612.13;4967932;28;20596;-59
2023/03/26 06:10:28;;;;;;;9.50;1.30;;;;;;;8.34;86.59;97600.56;4948503;28;20244;-60
2023/03/26 06:12:56;;;;;;;5.80;1.40;;;;;;;8.29;87.14;97590.66;4957902;28;20244;-60
2023/03/26 06:15:23;;;;;;;5.87;1.10;;;;;;;8.22;88.03;97582.66;4952609;28;20232;-60
2023/03/26 06:18:13;;;;;;;6.43;1.40;;;;;;;8.22;91.23;97581.88;4965054;28;20225;-60
2023/03/26 06:20:55;;;;;;;9.43;1.60;;;;;;;8.20;93.82;97556.03;4954735;28;20242;-60
2023/03/26 06:23:39;;;;;;;6.57;1.30;;;;;;;8.18;93.46;97550.19;4961743;28;20232;-60
2023/03/26 06:26:31;;;;;;;4.13;1.20;;;;;;;8.15;93.83;97554.91;4947779;28;20324;-59
2023/03/26 06:29:18;;;;;;;3.63;1.20;;;;;;;8.14;95.94;97548.88;4968389;28;20659;-59
2023/03/26 06:32:12;;;;;;;10.70;1.33;;;;;;;8.08;96.42;97541.72;4951808;28;20234;-59
2023/03/26 06:34:45;;;;;;;4.53;1.00;;;;;;;8.11;96.19;97542.22;4959642;28;20328;-60
2023/03/26 06:37:12;;;;;;;3.30;0.77;;;;;;;8.13;96.21;97539.44;4971645;28;20238;-59
2023/03/26 06:39:39;;;;;;;5.10;1.43;;;;;;;8.18;93.89;97531.19;4954818;28;20249;-59
2023/03/26 06:42:17;;;;;;;7.00;1.33;;;;;;;8.24;92.60;97523.53;4952955;28;20250;-60
2023/03/26 06:44:55;;;;;;;2.03;0.70;;;;;;;8.27;92.66;97515.41;4949885;28;20317;-60
2023/03/26 06:47:34;;;;;;;3.60;1.10;;;;;;;8.29;93.47;97512.66;4967579;28;20247;-59
2023/03/26 06:50:26;;;;;;;3.63;0.90;;;;;;;8.35;91.57;97530.22;4956790;28;20751;-60
2023/03/26 06:53:13;;;;;;;6.40;2.03;;;;;;;8.32;95.51;97525.34;4966311;28;20239;-60
2023/03/26 06:55:52;;;;;;;3.23;0.87;;;;;;;8.35;95.55;97527.59;4965430;28;20245;-59
2023/03/26 06:58:40;;;;;;;4.60;1.63;;;;;;;8.38;96.23;97516.06;4949056;28;20259;-59
2023/03/26 07:01:26;;;;;;;17.93;5.03;;;;;;;8.43;95.14;97505.97;4968477;28;20784;-60
2023/03/26 07:04:13;;;;;;;4.43;3.50;;;;;;;8.47;96.60;97507.25;4963337;28;20241;-59
2023/03/26 07:06:58;;;;;;;9.10;5.63;;;;;;;8.47;97.76;97496.06;4965368;28;20327;-60
2023/03/26 07:09:44;;;;;;;16.37;10.70;;;;;;;8.49;97.31;97504.50;4971643;28;20322;-60
2023/03/26 07:12:36;;;;;;;13.07;7.83;;;;;;;8.52;98.06;97493.78;4919175;28;20237;-60
2023/03/26 07:15:21;;;;;;;15.93;10.97;;;;;;;8.56;98.26;97500.28;4965213;28;20705;-57
2023/03/26 07:17:58;;;;;;;8.83;4.37;;;;;;;8.58;97.17;97506.13;4966488;28;20231;-59
2023/03/26 07:20:33;;;;;;;7.43;5.90;;;;;;;8.62;97.41;97491.81;4966252;28;20309;-59
2023/03/26 07:23:00;;;;;;;4.23;2.40;;;;;;;8.70;98.07;97488.41;4950812;28;20232;-59
2023/03/26 07:25:38;;;;;;;4.73;1.43;;;;;;;8.70;96.16;97489.19;4951927;28;20239;-60
2023/03/26 07:28:33;;;;;;;4.27;1.13;;;;;;;8.79;96.46;97491.78;4951855;28;20238;-62
2023/03/26 07:31:25;;;;;;;3.10;0.90;;;;;;;8.87;96.52;97486.53;4957786;28;20598;-60
2023/03/26 07:34:17;;;;;;;2.50;0.97;;;;;;;8.91;96.51;97476.63;4945272;28;20225;-60
2023/03/26 07:37:00;;;;;;;3.80;0.80;;;;;;;8.84;94.62;97471.25;4949144;28;20318;-60
2023/03/26 07:39:44;;;;;;;4.33;1.17;;;;;;;8.86;95.97;97466.72;4964538;28;20237;-60
2023/03/26 07:42:50;;;;;;;2.57;1.00;;;;;;;8.93;97.14;97457.25;4958135;28;20299;-60
2023/03/26 07:45:41;;;;;;;5.57;1.70;;;;;;;8.97;97.34;97458.53;4964784;28;20310;-60
2023/03/26 07:48:24;;;;;;;3.87;0.80;;;;;;;9.03;96.23;97466.66;4965811;28;20621;-60
2023/03/26 07:51:10;;;;;;;5.13;1.40;;;;;;;8.99;96.74;97466.97;4941982;28;20252;-60
2023/03/26 07:53:50;;;;;;;5.00;1.87;;;;;;;8.94;97.40;97474.47;4957686;28;20231;-60
2023/03/26 07:56:59;;;;;;;9.93;1.47;;;;;;;8.95;97.16;97481.31;4963013;28;20239;-60
2023/03/26 07:59:47;;;;;;;3.90;1.33;;;;;;;8.95;99.10;97480.50;4950784;28;20244;-59
2023/03/26 08:02:46;;;;;;;5.13;1.50;;;;;;;8.77;100.00;97496.34;4969831;28;20704;-60
2023/03/26 08:05:45;;;;;;;5.07;1.40;;;;;;;8.76;100.00;97497.31;4953003;28;20312;-60
2023/03/26 08:08:42;;;;;;;5.17;1.30;;;;;;;8.77;100.00;97509.34;4951641;28;20254;-60
2023/03/26 08:11:37;;;;;;;4.47;1.80;;;;;;;8.69;100.00;97508.38;4964860;28;20769;-60
2023/03/26 08:14:24;;;;;;;7.10;1.37;;;;;;;8.63;100.00;97508.25;4948163;28;20242;-60
2023/03/26 08:16:55;;;;;;;5.73;1.30;;;;;;;8.66;100.00;97515.72;4964108;28;20231;-61
2023/03/26 08:19:37;;;;;;;5.53;1.53;;;;;;;8.71;100.00;97511.63;4967519;28;20238;-59
2023/03/26 08:22:12;;;;;;;7.57;1.50;;;;;;;8.71;100.00;97503.81;4964021;28;20249;-59
2023/03/26 08:24:52;;;;;;;4.63;1.30;;;;;;;8.98;100.00;97525.22;4966002;28;20325;-61
2023/03/26 08:27:28;;;;;;;3.30;1.13;;;;;;;9.12;99.33;97509.88;4965227;28;20238;-60
2023/03/26 08:30:01;;;;;;;2.20;1.47;;;;;;;9.10;100.00;97512.63;4962744;28;20221;-61
2023/03/26 08:32:28;;;;;;;3.90;1.40;;;;;;;9.14;98.69;97518.34;4966411;28;20616;-60
2023/03/26 08:34:56;;;;;;;4.47;1.13;;;;;;;9.23;98.87;97509.50;4963252;28;20262;-59
2023/03/26 08:37:22;;;;;;;3.77;1.20;;;;;;;9.36;98.30;97518.56;4967571;28;20982;-60
2023/03/26 08:39:50;;;;;;;3.17;1.53;;;;;;;9.41;99.88;97517.06;4955812;28;20234;-59
2023/03/26 08:42:46;;;;;;;2.87;1.17;;;;;;;9.42;95.98;97517.91;4937020;28;20615;-59
2023/03/26 08:45:52;;;;;;;3.67;1.03;;;;;;;9.34;95.84;97510.91;4965703;28;20297;-60
2023/03/26 08:48:50;;;;;;;4.50;1.30;;;;;;;9.59;95.42;97510.78;4953233;28;20228;-59
2023/03/26 08:51:50;;;;;;;5.50;1.10;;;;;;;9.98;93.70;97517.72;4967398;28;20593;-60
2023/03/26 08:54:40;;;;;;;1.57;0.67;;;;;;;10.71;90.64;97508.63;4963000;28;20241;-60
2023/03/26 08:57:26;;;;;;;2.43;0.80;;;;;;;11.06;88.65;97520.13;4956132;28;20288;-60
2023/03/26 09:00:12;;;;;;;2.47;0.80;;;;;;;11.21;84.54;97509.66;4946705;28;20318;-59
2023/03/26 09:03:08;;;;;;;3.80;1.03;;;;;;;11.27;82.60;97515.97;4961712;28;20455;-60
2023/03/26 09:06:06;;;;;;;3.13;1.00;;;;;;;11.40;81.40;97525.75;4963543;28;20793;-59
2023/03/26 09:09:03;;;;;;;3.60;1.00;;;;;;;11.37;80.51;97521.72;4966761;28;20231;-60
2023/03/26 09:12:15;;;;;;;2.47;0.80;;;;;;;10.92;82.19;97529.59;4965609;28;20365;-60
2023/03/26 09:15:06;;;;;;;2.17;0.60;;;;;;;10.97;80.73;97539.50;4921162;28;20274;-59
2023/03/26 09:17:59;;;;;;;4.30;1.07;;;;;;;10.70;81.78;97539.09;4965580;28;20818;-60
2023/03/26 09:21:12;;;;;;;6.23;0.93;;;;;;;10.55;82.66;97538.31;4957546;28;20238;-60
2023/03/26 09:24:12;;;;;;;2.33;0.80;;;;;;;10.42;84.18;97531.88;4964052;28;20243;-60
2023/03/26 09:26:47;;;;;;;6.37;1.77;;;;;;;10.92;82.64;97529.59;4967988;28;20239;-60
2023/03/26 09:29:47;;;;;;;2.50;0.80;;;;;;;11.48;81.24;97527.47;4963315;28;21280;-60
2023/03/26 09:32:50;;;;;;;4.20;1.60;;;;;;;12.02;76.89;97534.09;4965725;28;20306;-60
2023/03/26 09:35:50;;;;;;;5.10;1.40;;;;;;;12.14;74.59;97541.44;4962635;28;20254;-60
2023/03/26 09:38:33;;;;;;;4.00;1.20;;;;;;;11.62;75.65;97528.41;4941442;28;20292;-60
2023/03/26 09:41:08;;;;;;;1.77;0.80;;;;;;;11.11;77.00;97534.44;4964577;28;20240;-60
2023/03/26 09:44:03;;;;;;;2.87;1.60;;;;;;;11.44;74.40;97539.28;4968783;28;20227;-60
2023/03/26 09:46:43;;;;;;;4.17;1.70;;;;;;;11.76;70.70;97527.56;4965181;28;20642;-59
2023/03/26 09:49:30;;;;;;;3.03;1.00;;;;;;;11.63;73.21;97522.19;4964413;28;20284;-60
2023/03/26 09:52:08;;;;;;;3.00;0.80;;;;;;;12.23;72.32;97517.56;4964651;28;20704;-61
2023/03/26 09:54:56;;;;;;;1.83;0.60;;;;;;;12.27;73.01;97523.22;4959505;28;20234;-60
2023/03/26 09:57:41;;;;;;;1.33;0.80;;;;;;;12.67;67.75;97504.38;4957386;28;20227;-60
2023/03/26 10:00:21;;;;;;;3.50;0.87;;;;;;;12.49;68.30;97515.31;4964459;28;20237;-60
2023/03/26 10:03:02;;;;;;;3.13;0.70;;;;;;;12.04;69.26;97515.56;4965406;28;20232;-61
2023/03/26 10:05:58;;;;;;;3.23;0.80;;;;;;;11.69;70.56;97516.22;4965220;28;20232;-61
2023/03/26 10:08:40;;;;;;;2.70;0.53;;;;;;;11.74;69.94;97529.56;4964600;28;20231;-60
2023/03/26 10:11:17;;;;;;;2.77;0.60;;;;;;;12.14;70.88;97518.69;4968283;28;20224;-61
2023/03/26 10:14:00;;;;;;;1.47;0.80;;;;;;;12.38;70.61;97506.19;4955022;28;20326;-61
2023/03/26 10:16:39;;;;;;;4.63;0.80;;;;;;;12.56;66.60;97526.66;4966596;28;20287;-60
2023/03/26 10:19:31;;;;;;;1.77;0.60;;;;;;;12.62;67.54;97519.88;4955700;28;20248;-60
2023/03/26 10:22:09;;;;;;;3.83;0.70;;;;;;;12.65;68.04;97509.00;4965689;28;20297;-61
2023/03/26 10:24:53;;;;;;;1.97;0.80;;;;;;;12.27;69.82;97509.34;4969605;28;20663;-60
2023/03/26 10:27:42;;;;;;;2.20;1.10;;;;;;;12.32;68.70;97499.91;4968761;28;20264;-61
2023/03/26 10:30:28;;;;;;;2.17;0.60;;;;;;;11.93;72.03;97511.63;4967409;28;20254;-60
2023/03/26 10:33:09;;;;;;;4.60;0.93;;;;;;;12.34;70.27;97499.72;4948052;28;20284;-61
2023/03/26 10:35:53;;;;;;;2.07;0.87;;;;;;;12.92;70.41;97494.25;4963472;28;20255;-60
2023/03/26 10:38:31;;;;;;;1.70;0.90;;;;;;;12.63;70.91;97487.44;4966109;28;20283;-59
2023/03/26 10:41:08;;;;;;;2.57;0.80;;;;;;;12.91;67.84;97502.28;4961635;28;20307;-60
2023/03/26 10:44:09;;;;;;;2.20;0.80;;;;;;;12.77;67.44;97504.81;4972543;28;20308;-60
2023/03/26 10:47:02;;;;;;;0.87;0.70;;;;;;;13.14;65.78;97499.41;4967968;28;20228;-60
2023/03/26 10:49:54;;;;;;;2.53;0.87;;;;;;;13.18;65.63;97510.28;4968543;28;20316;-61
2023/03/26 10:52:24;;;;;;;4.37;1.00;;;;;;;13.17;65.39;97495.56;4966804;28;20262;-60
2023/03/26 10:54:57;;;;;;;1.67;0.80;;;;;;;12.61;67.57;97494.69;4965321;28;20576;-60
2023/03/26 10:57:35;;;;;;;3.30;0.80;;;;;;;12.67;66.92;97502.56;4965852;28;20269;-59
2023/03/26 11:00:14;;;;;;;2.03;0.63;;;;;;;12.39;67.79;97495.53;4968244;28;20239;-60
2023/03/26 11:02:46;;;;;;;3.80;0.80;;;;;;;12.40;66.81;97498.97;4965856;28;20251;-60
2023/03/26 11:05:27;;;;;;;4.17;0.87;;;;;;;12.07;66.58;97508.19;4963731;28;20244;-60
2023/03/26 11:08:01;;;;;;;4.77;1.00;;;;;;;12.18;64.82;97493.78;4968124;28;20870;-60
2023/03/26 11:10:42;;;;;;;4.10;1.10;;;;;;;12.29;65.00;97496.88;4973847;28;20247;-60
2023/03/26 11:13:19;;;;;;;2.67;0.70;;;;;;;12.51;65.86;97503.69;4966081;28;20857;-60
2023/03/26 11:15:51;;;;;;;6.77;0.93;;;;;;;12.75;63.50;97496.34;4967379;28;20247;-60
2023/03/26 11:18:22;;;;;;;3.57;0.80;;;;;;;12.84;62.09;97494.41;4969421;28;20697;-60
2023/03/26 11:21:01;;;;;;;5.10;1.20;;;;;;;12.60;61.70;97496.47;4966968;28;20253;-60
2023/03/26 11:23:35;;;;;;;4.10;1.53;;;;;;;12.99;58.08;97489.03;4954669;28;20311;-60
2023/03/26 11:26:16;;;;;;;4.20;1.00;;;;;;;12.69;57.06;97503.19;4960607;28;20319;-60
2023/03/26 11:29:13;;;;;;;3.30;1.00;;;;;;;12.65;55.63;97496.72;4967926;28;20271;-59
2023/03/26 11:31:55;;;;;;;5.30;1.23;;;;;;;12.81;56.88;97506.06;4948785;28;20252;-60
2023/03/26 11:34:28;;;;;;;5.33;1.63;;;;;;;12.53;58.68;97496.44;4966756;28;20303;-60
2023/03/26 11:36:58;;;;;;;3.73;0.83;;;;;;;12.76;55.67;97510.28;4966444;28;20262;-61
2023/03/26 11:39:29;;;;;;;3.67;0.93;;;;;;;12.83;54.65;97498.81;4929765;28;20233;-60
2023/03/26 11:42:06;;;;;;;3.60;1.03;;;;;;;12.61;54.68;97490.25;4967416;28;20240;-60
2023/03/26 11:44:46;;;;;;;4.70;1.20;;;;;;;12.54;57.94;97495.44;4967614;28;20260;-60
2023/03/26 11:47:18;;;;;;;4.63;1.00;;;;;;;12.78;54.81;97489.94;4965204;28;20255;-60
2023/03/26 11:49:49;;;;;;;3.97;1.00;;;;;;;12.98;56.96;97497.88;4966297;28;20236;-60
2023/03/26 11:52:16;;;;;;;5.57;1.00;;;;;;;12.57;55.86;97483.78;4966683;28;20239;-60
2023/03/26 11:54:47;;;;;;;6.37;1.13;;;;;;;12.58;56.10;97487.22;4967304;28;20234;-60
2023/03/26 11:57:20;;;;;;;4.00;0.80;;;;;;;12.76;55.99;97495.34;4965406;28;20283;-59
2023/03/26 11:59:53;;;;;;;1.93;0.50;;;;;;;12.30;55.84;97488.03;4948731;28;20257;-60
2023/03/26 12:02:27;;;;;;;7.23;0.93;;;;;;;12.41;57.38;97477.03;4958861;28;20235;-60
2023/03/26 12:05:19;;;;;;;1.83;0.63;;;;;;;12.51;55.84;97474.06;4962867;28;20718;-60
2023/03/26 12:07:52;;;;;;;5.80;1.07;;;;;;;12.56;56.31;97469.06;4964912;28;20226;-60
2023/03/26 12:10:25;;;;;;;2.63;0.53;;;;;;;12.58;57.05;97458.41;4966524;28;20236;-60
2023/03/26 12:12:57;;;;;;;2.77;0.70;;;;;;;12.95;55.31;97456.38;4950617;28;20229;-60
2023/03/26 12:15:25;;;;;;;4.30;0.70;;;;;;;12.83;53.89;97463.97;4968667;28;20224;-60
2023/03/26 12:17:55;;;;;;;2.37;0.80;;;;;;;13.18;57.06;97453.47;4967277;28;20240;-61
2023/03/26 12:20:41;;;;;;;4.37;0.90;;;;;;;13.31;57.40;97442.19;4949134;28;20333;-60
2023/03/26 12:23:34;;;;;;;2.57;0.70;;;;;;;13.29;55.08;97441.59;4960797;28;20234;-60
2023/03/26 12:26:11;;;;;;;2.67;0.90;;;;;;;13.40;53.51;97448.06;4960647;28;20695;-60
2023/03/26 12:28:45;;;;;;;3.37;1.00;;;;;;;13.73;50.92;97444.72;4957456;28;20723;-60
2023/03/26 12:31:17;;;;;;;4.37;0.70;;;;;;;13.63;51.35;97454.78;4965188;28;20245;-60
2023/03/26 12:34:03;;;;;;;4.57;0.53;;;;;;;13.32;45.98;97435.13;4967760;28;20227;-61